sensor_id;sensor_type;location;lat;lon;timestamp;temperature;humidity
18384;DHT22;9318;48.644;9.456;2023-04-16T00:01:00;8.00;99.90
18384;DHT22;9318;48.644;9.456;2023-04-16T00:03:27;8.10;99.90
18384;DHT22;9318;48.644;9.456;2023-04-16T00:05:54;8.10;99.90
18384;DHT22;9318;48.644;9.456;2023-04-16T00:08:21;8.10;99.90
18384;DHT22;9318;48.644;9.456;2023-04-16T00:10:51;8.00;99.90
18384;DHT22;9318;48.644;9.456;2023-04-16T00:13:18;8.00;99.90
18384;DHT22;9318;48.644;9.456;2023-04-16T00:15:45;8.00;99.90
18384;DHT22;9318;48.644;9.456;2023-04-16T00:18:11;8.00;99.90
18384;DHT22;9318;48.644;9.456;2023-04-16T00:20:38;8.00;99.90
18384;DHT22;9318;48.644;9.456;2023-04-16T00:23:05;8.00;99.90
18384;DHT22;9318;48.644;9.456;2023-04-16T00:25:31;8.00;99.90
18384;DHT22;9318;48.644;9.456;2023-04-16T00:28:00;8.00;99.90
18384;DHT22;9318;48.644;9.456;2023-04-16T00:30:26;8.10;99.90
18384;DHT22;9318;48.644;9.456;2023-04-16T00:32:53;8.00;99.90
18384;DHT22;9318;48.644;9.456;2023-04-16T00:35:20;8.00;99.90
18384;DHT22;9318;48.644;9.456;2023-04-16T00:37:47;8.00;99.90
18384;DHT22;9318;48.644;9.456;2023-04-16T00:40:14;8.00;99.90
18384;DHT22;9318;48.644;9.456;2023-04-16T00:42:40;8.00;99.90
18384;DHT22;9318;48.644;9.456;2023-04-16T00:45:10;8.00;99.90
18384;DHT22;9318;48.644;9.456;2023-04-16T00:47:37;8.00;99.90
18384;DHT22;9318;48.644;9.456;2023-04-16T00:50:05;8.00;99.90
18384;DHT22;9318;48.644;9.456;2023-04-16T00:52:32;8.00;99.90
18384;DHT22;9318;48.644;9.456;2023-04-16T00:55:00;7.90;99.90
18384;DHT22;9318;48.644;9.456;2023-04-16T00:57:26;8.00;99.90
18384;DHT22;9318;48.644;9.456;2023-04-16T00:59:53;8.00;99.90
18384;DHT22;9318;48.644;9.456;2023-04-16T01:02:22;8.00;99.90
18384;DHT22;9318;48.644;9.456;2023-04-16T01:04:49;7.90;99.90
18384;DHT22;9318;48.644;9.456;2023-04-16T01:07:16;8.00;99.90
18384;DHT22;9318;48.644;9.456;2023-04-16T01:09:43;7.90;99.90
18384;DHT22;9318;48.644;9.456;2023-04-16T01:12:10;7.90;99.90
18384;DHT22;9318;48.644;9.456;2023-04-16T01:14:37;7.90;99.90
18384;DHT22;9318;48.644;9.456;2023-04-16T01:17:04;7.90;99.90
18384;DHT22;9318;48.644;9.456;2023-04-16T01:19:32;7.90;99.90
18384;DHT22;9318;48.644;9.456;2023-04-16T01:22:02;7.90;99.90
18384;DHT22;9318;48.644;9.456;2023-04-16T01:24:29;7.90;99.90
18384;DHT22;9318;48.644;9.456;2023-04-16T01:26:57;7.90;99.90
18384;DHT22;9318;48.644;9.456;2023-04-16T01:29:23;7.90;99.90
18384;DHT22;9318;48.644;9.456;2023-04-16T01:31:50;7.90;99.90
18384;DHT22;9318;48.644;9.456;2023-04-16T01:34:17;7.90;99.90
18384;DHT22;9318;48.644;9.456;2023-04-16T01:36:44;7.80;99.90
18384;DHT22;9318;48.644;9.456;2023-04-16T01:39:12;7.90;99.90
18384;DHT22;9318;48.644;9.456;2023-04-16T01:41:41;7.90;99.90
18384;DHT22;9318;48.644;9.456;2023-04-16T01:44:08;7.90;99.90
18384;DHT22;9318;48.644;9.456;2023-04-16T01:46:35;7.90;99.90
18384;DHT22;9318;48.644;9.456;2023-04-16T01:49:03;7.90;99.90
18384;DHT22;9318;48.644;9.456;2023-04-16T01:51:31;7.90;99.90
18384;DHT22;9318;48.644;9.456;2023-04-16T01:53:58;7.90;99.90
18384;DHT22;9318;48.644;9.456;2023-04-16T01:56:26;7.90;99.90
18384;DHT22;9318;48.644;9.456;2023-04-16T01:58:53;7.90;99.90
18384;DHT22;9318;48.644;9.456;2023-04-16T02:01:20;7.90;99.90
18384;DHT22;9318;48.644;9.456;2023-04-16T02:03:47;7.90;99.90
18384;DHT22;9318;48.644;9.456;2023-04-16T02:06:14;7.90;99.90
18384;DHT22;9318;48.644;9.456;2023-04-16T02:08:41;7.90;99.90
18384;DHT22;9318;48.644;9.456;2023-04-16T02:11:07;7.90;99.90
18384;DHT22;9318;48.644;9.456;2023-04-16T02:13:36;7.90;99.90
18384;DHT22;9318;48.644;9.456;2023-04-16T02:16:03;7.90;99.90
18384;DHT22;9318;48.644;9.456;2023-04-16T02:18:29;7.90;99.90
18384;DHT22;9318;48.644;9.456;2023-04-16T02:20:57;7.90;99.90
18384;DHT22;9318;48.644;9.456;2023-04-16T02:23:24;7.90;99.90
18384;DHT22;9318;48.644;9.456;2023-04-16T02:25:51;7.90;99.90
18384;DHT22;9318;48.644;9.456;2023-04-16T02:28:18;7.80;99.90
18384;DHT22;9318;48.644;9.456;2023-04-16T02:30:46;7.80;99.90
18384;DHT22;9318;48.644;9.456;2023-04-16T02:33:12;7.90;99.90
18384;DHT22;9318;48.644;9.456;2023-04-16T02:35:40;7.90;99.90
18384;DHT22;9318;48.644;9.456;2023-04-16T02:38:07;7.90;99.90
18384;DHT22;9318;48.644;9.456;2023-04-16T02:40:34;7.90;99.90
18384;DHT22;9318;48.644;9.456;2023-04-16T02:43:00;7.90;99.90
18384;DHT22;9318;48.644;9.456;2023-04-16T02:45:27;7.90;99.90
18384;DHT22;9318;48.644;9.456;2023-04-16T02:47:57;7.90;99.90
18384;DHT22;9318;48.644;9.456;2023-04-16T02:50:24;7.90;99.90
18384;DHT22;9318;48.644;9.456;2023-04-16T02:52:51;7.90;99.90
18384;DHT22;9318;48.644;9.456;2023-04-16T02:55:17;7.90;99.90
18384;DHT22;9318;48.644;9.456;2023-04-16T02:57:44;7.90;99.90
18384;DHT22;9318;48.644;9.456;2023-04-16T03:00:11;7.90;99.90
18384;DHT22;9318;48.644;9.456;2023-04-16T03:02:38;7.90;99.90
18384;DHT22;9318;48.644;9.456;2023-04-16T03:05:08;7.90;99.90
18384;DHT22;9318;48.644;9.456;2023-04-16T03:07:34;7.90;99.90
18384;DHT22;9318;48.644;9.456;2023-04-16T03:10:04;7.90;99.90
18384;DHT22;9318;48.644;9.456;2023-04-16T03:12:31;7.80;99.90
18384;DHT22;9318;48.644;9.456;2023-04-16T03:14:58;7.90;99.90
18384;DHT22;9318;48.644;9.456;2023-04-16T03:17:25;7.80;99.90
18384;DHT22;9318;48.644;9.456;2023-04-16T03:19:51;7.80;99.90
18384;DHT22;9318;48.644;9.456;2023-04-16T03:22:20;7.80;99.90
18384;DHT22;9318;48.644;9.456;2023-04-16T03:24:47;7.90;99.90
18384;DHT22;9318;48.644;9.456;2023-04-16T03:27:13;7.90;99.90
18384;DHT22;9318;48.644;9.456;2023-04-16T03:29:40;7.80;99.90
18384;DHT22;9318;48.644;9.456;2023-04-16T03:32:07;7.90;99.90
18384;DHT22;9318;48.644;9.456;2023-04-16T03:34:34;7.90;99.90
18384;DHT22;9318;48.644;9.456;2023-04-16T03:37:01;7.90;99.90
18384;DHT22;9318;48.644;9.456;2023-04-16T03:39:31;7.90;99.90
18384;DHT22;9318;48.644;9.456;2023-04-16T03:41:58;7.90;99.90
18384;DHT22;9318;48.644;9.456;2023-04-16T03:44:24;7.90;99.90
18384;DHT22;9318;48.644;9.456;2023-04-16T03:46:51;7.90;99.90
18384;DHT22;9318;48.644;9.456;2023-04-16T03:49:18;7.90;99.90
18384;DHT22;9318;48.644;9.456;2023-04-16T03:51:45;7.90;99.90
18384;DHT22;9318;48.644;9.456;2023-04-16T03:54:12;7.90;99.90
18384;DHT22;9318;48.644;9.456;2023-04-16T03:56:40;7.90;99.90
18384;DHT22;9318;48.644;9.456;2023-04-16T03:59:07;7.80;99.90
18384;DHT22;9318;48.644;9.456;2023-04-16T04:01:34;7.90;99.90
18384;DHT22;9318;48.644;9.456;2023-04-16T04:04:00;7.80;99.90
18384;DHT22;9318;48.644;9.456;2023-04-16T04:06:27;7.80;99.90
18384;DHT22;9318;48.644;9.456;2023-04-16T04:08:54;7.80;99.90
18384;DHT22;9318;48.644;9.456;2023-04-16T04:11:21;7.80;99.90
18384;DHT22;9318;48.644;9.456;2023-04-16T04:13:50;7.80;99.90
18384;DHT22;9318;48.644;9.456;2023-04-16T04:16:17;7.90;99.90
18384;DHT22;9318;48.644;9.456;2023-04-16T04:18:43;7.80;99.90
18384;DHT22;9318;48.644;9.456;2023-04-16T04:21:10;7.90;99.90
18384;DHT22;9318;48.644;9.456;2023-04-16T04:23:37;7.90;99.90
18384;DHT22;9318;48.644;9.456;2023-04-16T04:26:04;7.90;99.90
18384;DHT22;9318;48.644;9.456;2023-04-16T04:28:32;7.90;99.90
18384;DHT22;9318;48.644;9.456;2023-04-16T04:31:00;7.90;99.90
18384;DHT22;9318;48.644;9.456;2023-04-16T04:33:27;7.90;99.90
18384;DHT22;9318;48.644;9.456;2023-04-16T04:35:54;7.80;99.90
18384;DHT22;9318;48.644;9.456;2023-04-16T04:38:21;7.90;99.90
18384;DHT22;9318;48.644;9.456;2023-04-16T04:40:49;7.90;99.90
18384;DHT22;9318;48.644;9.456;2023-04-16T04:43:16;7.90;99.90
18384;DHT22;9318;48.644;9.456;2023-04-16T04:45:43;7.90;99.90
18384;DHT22;9318;48.644;9.456;2023-04-16T04:48:11;7.90;99.90
18384;DHT22;9318;48.644;9.456;2023-04-16T04:50:38;7.90;99.90
18384;DHT22;9318;48.644;9.456;2023-04-16T04:53:05;7.90;99.90
18384;DHT22;9318;48.644;9.456;2023-04-16T04:55:34;7.80;99.90
18384;DHT22;9318;48.644;9.456;2023-04-16T04:58:02;7.90;99.90
18384;DHT22;9318;48.644;9.456;2023-04-16T05:00:29;7.90;99.90
18384;DHT22;9318;48.644;9.456;2023-04-16T05:02:56;7.90;99.90
18384;DHT22;9318;48.644;9.456;2023-04-16T05:05:24;7.90;99.90
18384;DHT22;9318;48.644;9.456;2023-04-16T05:07:50;7.90;99.90
18384;DHT22;9318;48.644;9.456;2023-04-16T05:10:17;7.90;99.90
18384;DHT22;9318;48.644;9.456;2023-04-16T05:12:45;7.90;99.90
18384;DHT22;9318;48.644;9.456;2023-04-16T05:15:11;7.90;99.90
18384;DHT22;9318;48.644;9.456;2023-04-16T05:17:38;7.90;99.90
18384;DHT22;9318;48.644;9.456;2023-04-16T05:20:06;7.90;99.90
18384;DHT22;9318;48.644;9.456;2023-04-16T05:22:35;7.80;99.90
18384;DHT22;9318;48.644;9.456;2023-04-16T05:25:02;7.80;99.90
18384;DHT22;9318;48.644;9.456;2023-04-16T05:27:29;7.90;99.90
18384;DHT22;9318;48.644;9.456;2023-04-16T05:29:55;7.90;99.90
18384;DHT22;9318;48.644;9.456;2023-04-16T05:32:25;7.90;99.90
18384;DHT22;9318;48.644;9.456;2023-04-16T05:34:52;7.90;99.90
18384;DHT22;9318;48.644;9.456;2023-04-16T05:37:19;7.90;99.90
18384;DHT22;9318;48.644;9.456;2023-04-16T05:39:47;7.80;99.90
18384;DHT22;9318;48.644;9.456;2023-04-16T05:42:14;7.90;99.90
18384;DHT22;9318;48.644;9.456;2023-04-16T05:44:40;7.80;99.90
18384;DHT22;9318;48.644;9.456;2023-04-16T05:47:07;7.90;99.90
18384;DHT22;9318;48.644;9.456;2023-04-16T05:49:34;7.90;99.90
18384;DHT22;9318;48.644;9.456;2023-04-16T05:52:01;7.90;99.90
18384;DHT22;9318;48.644;9.456;2023-04-16T05:54:28;7.90;99.90
18384;DHT22;9318;48.644;9.456;2023-04-16T05:56:56;7.90;99.90
18384;DHT22;9318;48.644;9.456;2023-04-16T05:59:23;7.90;99.90
18384;DHT22;9318;48.644;9.456;2023-04-16T06:01:50;8.00;99.90
18384;DHT22;9318;48.644;9.456;2023-04-16T06:04:16;7.90;99.90
18384;DHT22;9318;48.644;9.456;2023-04-16T06:06:43;8.00;99.90
18384;DHT22;9318;48.644;9.456;2023-04-16T06:09:10;8.00;99.90
18384;DHT22;9318;48.644;9.456;2023-04-16T06:11:37;8.00;99.90
18384;DHT22;9318;48.644;9.456;2023-04-16T06:14:05;8.00;99.90
18384;DHT22;9318;48.644;9.456;2023-04-16T06:16:32;8.00;99.90
18384;DHT22;9318;48.644;9.456;2023-04-16T06:18:59;8.00;99.90
18384;DHT22;9318;48.644;9.456;2023-04-16T06:21:25;8.10;99.90
18384;DHT22;9318;48.644;9.456;2023-04-16T06:23:53;8.00;99.90
18384;DHT22;9318;48.644;9.456;2023-04-16T06:26:20;8.00;99.90
18384;DHT22;9318;48.644;9.456;2023-04-16T06:28:47;8.00;99.90
18384;DHT22;9318;48.644;9.456;2023-04-16T06:31:15;8.00;99.90
18384;DHT22;9318;48.644;9.456;2023-04-16T06:33:42;8.00;99.90
18384;DHT22;9318;48.644;9.456;2023-04-16T06:36:09;8.00;99.90
18384;DHT22;9318;48.644;9.456;2023-04-16T06:38:36;7.90;99.90
18384;DHT22;9318;48.644;9.456;2023-04-16T06:41:03;8.00;99.90
18384;DHT22;9318;48.644;9.456;2023-04-16T06:43:30;8.10;99.90
18384;DHT22;9318;48.644;9.456;2023-04-16T06:45:57;8.10;99.90
18384;DHT22;9318;48.644;9.456;2023-04-16T06:48:26;8.10;99.90
18384;DHT22;9318;48.644;9.456;2023-04-16T06:50:53;8.10;99.90
18384;DHT22;9318;48.644;9.456;2023-04-16T06:53:20;8.10;99.90
18384;DHT22;9318;48.644;9.456;2023-04-16T06:55:47;8.10;99.90
18384;DHT22;9318;48.644;9.456;2023-04-16T06:58:14;8.10;99.90
18384;DHT22;9318;48.644;9.456;2023-04-16T07:00:40;8.10;99.90
18384;DHT22;9318;48.644;9.456;2023-04-16T07:03:07;8.20;99.90
18384;DHT22;9318;48.644;9.456;2023-04-16T07:05:35;8.20;99.90
18384;DHT22;9318;48.644;9.456;2023-04-16T07:08:02;8.20;99.90
18384;DHT22;9318;48.644;9.456;2023-04-16T07:10:29;8.10;99.90
18384;DHT22;9318;48.644;9.456;2023-04-16T07:12:56;8.20;99.90
18384;DHT22;9318;48.644;9.456;2023-04-16T07:15:23;8.10;99.90
18384;DHT22;9318;48.644;9.456;2023-04-16T07:17:49;8.10;99.90
18384;DHT22;9318;48.644;9.456;2023-04-16T07:20:16;8.20;99.90
18384;DHT22;9318;48.644;9.456;2023-04-16T07:22:44;8.20;99.90
18384;DHT22;9318;48.644;9.456;2023-04-16T07:25:11;8.20;99.90
18384;DHT22;9318;48.644;9.456;2023-04-16T07:27:38;8.20;99.90
18384;DHT22;9318;48.644;9.456;2023-04-16T07:30:06;8.20;99.90
18384;DHT22;9318;48.644;9.456;2023-04-16T07:32:33;8.20;99.90
18384;DHT22;9318;48.644;9.456;2023-04-16T07:35:00;8.20;99.90
18384;DHT22;9318;48.644;9.456;2023-04-16T07:37:28;8.20;99.90
18384;DHT22;9318;48.644;9.456;2023-04-16T07:39:56;8.10;99.90
18384;DHT22;9318;48.644;9.456;2023-04-16T07:42:25;8.20;99.90
18384;DHT22;9318;48.644;9.456;2023-04-16T07:44:52;8.20;99.90
18384;DHT22;9318;48.644;9.456;2023-04-16T07:47:19;8.20;99.90
18384;DHT22;9318;48.644;9.456;2023-04-16T07:49:47;8.20;99.90
18384;DHT22;9318;48.644;9.456;2023-04-16T07:52:14;8.30;99.90
18384;DHT22;9318;48.644;9.456;2023-04-16T07:54:41;8.30;99.90
18384;DHT22;9318;48.644;9.456;2023-04-16T07:57:09;8.40;99.90
18384;DHT22;9318;48.644;9.456;2023-04-16T07:59:36;8.40;99.90
18384;DHT22;9318;48.644;9.456;2023-04-16T08:02:03;8.40;99.90
18384;DHT22;9318;48.644;9.456;2023-04-16T08:04:30;8.40;99.90
18384;DHT22;9318;48.644;9.456;2023-04-16T08:06:57;8.40;99.90
18384;DHT22;9318;48.644;9.456;2023-04-16T08:09:26;8.40;99.90
18384;DHT22;9318;48.644;9.456;2023-04-16T08:11:53;8.50;99.90
18384;DHT22;9318;48.644;9.456;2023-04-16T08:14:21;8.40;99.90
18384;DHT22;9318;48.644;9.456;2023-04-16T08:16:48;8.40;99.90
18384;DHT22;9318;48.644;9.456;2023-04-16T08:19:15;8.40;99.90
18384;DHT22;9318;48.644;9.456;2023-04-16T08:21:42;8.40;99.90
18384;DHT22;9318;48.644;9.456;2023-04-16T08:24:09;8.40;99.90
18384;DHT22;9318;48.644;9.456;2023-04-16T08:26:36;8.40;99.90
18384;DHT22;9318;48.644;9.456;2023-04-16T08:29:03;8.40;99.90
18384;DHT22;9318;48.644;9.456;2023-04-16T08:31:31;8.50;99.90
18384;DHT22;9318;48.644;9.456;2023-04-16T08:33:59;8.50;99.90
18384;DHT22;9318;48.644;9.456;2023-04-16T08:36:26;8.50;99.90
18384;DHT22;9318;48.644;9.456;2023-04-16T08:38:52;8.50;99.90
18384;DHT22;9318;48.644;9.456;2023-04-16T08:41:20;8.50;99.90
18384;DHT22;9318;48.644;9.456;2023-04-16T08:43:49;8.60;99.90
18384;DHT22;9318;48.644;9.456;2023-04-16T08:46:16;8.60;99.90
18384;DHT22;9318;48.644;9.456;2023-04-16T08:48:48;8.60;99.90
18384;DHT22;9318;48.644;9.456;2023-04-16T08:51:16;8.70;99.90
18384;DHT22;9318;48.644;9.456;2023-04-16T08:53:48;8.70;99.90
18384;DHT22;9318;48.644;9.456;2023-04-16T08:56:19;8.70;99.90
18384;DHT22;9318;48.644;9.456;2023-04-16T08:58:47;8.70;99.90
18384;DHT22;9318;48.644;9.456;2023-04-16T09:01:15;8.70;99.90
18384;DHT22;9318;48.644;9.456;2023-04-16T09:03:45;8.80;99.90
18384;DHT22;9318;48.644;9.456;2023-04-16T09:06:13;8.80;99.90
18384;DHT22;9318;48.644;9.456;2023-04-16T09:08:40;8.90;99.90
18384;DHT22;9318;48.644;9.456;2023-04-16T09:11:08;8.80;99.90
18384;DHT22;9318;48.644;9.456;2023-04-16T09:13:36;8.70;99.90
18384;DHT22;9318;48.644;9.456;2023-04-16T09:16:05;8.70;99.90
18384;DHT22;9318;48.644;9.456;2023-04-16T09:18:32;8.70;99.90
18384;DHT22;9318;48.644;9.456;2023-04-16T09:21:00;8.70;99.90
18384;DHT22;9318;48.644;9.456;2023-04-16T09:23:29;8.70;99.90
18384;DHT22;9318;48.644;9.456;2023-04-16T09:25:56;8.80;99.90
18384;DHT22;9318;48.644;9.456;2023-04-16T09:28:40;8.80;99.90
18384;DHT22;9318;48.644;9.456;2023-04-16T09:31:08;8.80;99.90
18384;DHT22;9318;48.644;9.456;2023-04-16T09:33:35;8.80;99.90
18384;DHT22;9318;48.644;9.456;2023-04-16T09:36:04;8.80;99.90
18384;DHT22;9318;48.644;9.456;2023-04-16T09:38:47;8.80;99.90
18384;DHT22;9318;48.644;9.456;2023-04-16T09:41:14;8.80;99.90
18384;DHT22;9318;48.644;9.456;2023-04-16T09:43:48;8.80;99.90
18384;DHT22;9318;48.644;9.456;2023-04-16T09:46:19;8.80;99.90
18384;DHT22;9318;48.644;9.456;2023-04-16T09:48:46;8.80;99.90
18384;DHT22;9318;48.644;9.456;2023-04-16T09:51:14;8.80;99.90
18384;DHT22;9318;48.644;9.456;2023-04-16T09:53:40;8.80;99.90
18384;DHT22;9318;48.644;9.456;2023-04-16T09:56:08;8.80;99.90
18384;DHT22;9318;48.644;9.456;2023-04-16T09:58:35;8.80;99.90
18384;DHT22;9318;48.644;9.456;2023-04-16T10:01:03;8.90;99.90
18384;DHT22;9318;48.644;9.456;2023-04-16T10:03:31;8.80;99.90
18384;DHT22;9318;48.644;9.456;2023-04-16T10:05:59;8.90;99.90
18384;DHT22;9318;48.644;9.456;2023-04-16T10:08:28;8.90;99.90
18384;DHT22;9318;48.644;9.456;2023-04-16T10:10:55;8.90;99.90
18384;DHT22;9318;48.644;9.456;2023-04-16T10:13:22;8.90;99.90
18384;DHT22;9318;48.644;9.456;2023-04-16T10:15:53;9.00;99.90
18384;DHT22;9318;48.644;9.456;2023-04-16T10:18:21;9.00;99.90
18384;DHT22;9318;48.644;9.456;2023-04-16T10:20:48;9.00;99.90
18384;DHT22;9318;48.644;9.456;2023-04-16T10:23:16;8.90;99.90
18384;DHT22;9318;48.644;9.456;2023-04-16T10:25:44;8.90;99.90
18384;DHT22;9318;48.644;9.456;2023-04-16T10:28:12;8.90;99.90
18384;DHT22;9318;48.644;9.456;2023-04-16T10:30:41;8.90;99.90
18384;DHT22;9318;48.644;9.456;2023-04-16T10:33:13;8.90;99.90
18384;DHT22;9318;48.644;9.456;2023-04-16T10:35:40;8.90;99.90
18384;DHT22;9318;48.644;9.456;2023-04-16T10:38:24;8.90;99.90
18384;DHT22;9318;48.644;9.456;2023-04-16T10:41:00;8.90;99.90
18384;DHT22;9318;48.644;9.456;2023-04-16T10:43:27;8.90;99.90
18384;DHT22;9318;48.644;9.456;2023-04-16T10:45:54;8.80;99.90
18384;DHT22;9318;48.644;9.456;2023-04-16T10:48:23;8.80;99.90
18384;DHT22;9318;48.644;9.456;2023-04-16T10:50:56;8.80;99.90
18384;DHT22;9318;48.644;9.456;2023-04-16T10:53:25;8.70;99.90
18384;DHT22;9318;48.644;9.456;2023-04-16T10:56:09;8.70;99.90
18384;DHT22;9318;48.644;9.456;2023-04-16T10:58:37;8.70;99.90
18384;DHT22;9318;48.644;9.456;2023-04-16T11:01:06;8.70;99.90
18384;DHT22;9318;48.644;9.456;2023-04-16T11:03:36;8.70;99.90
18384;DHT22;9318;48.644;9.456;2023-04-16T11:06:12;8.70;99.90
18384;DHT22;9318;48.644;9.456;2023-04-16T11:08:41;8.80;99.90
18384;DHT22;9318;48.644;9.456;2023-04-16T11:11:12;8.80;99.90
18384;DHT22;9318;48.644;9.456;2023-04-16T11:13:41;8.70;99.90
18384;DHT22;9318;48.644;9.456;2023-04-16T11:16:09;8.80;99.90
18384;DHT22;9318;48.644;9.456;2023-04-16T11:18:36;8.80;99.90
18384;DHT22;9318;48.644;9.456;2023-04-16T11:21:07;8.90;99.90
18384;DHT22;9318;48.644;9.456;2023-04-16T11:23:45;8.90;99.90
18384;DHT22;9318;48.644;9.456;2023-04-16T11:26:23;8.90;99.90
18384;DHT22;9318;48.644;9.456;2023-04-16T11:28:52;9.00;99.90
18384;DHT22;9318;48.644;9.456;2023-04-16T11:31:18;9.00;99.90
18384;DHT22;9318;48.644;9.456;2023-04-16T11:33:45;8.90;99.90
18384;DHT22;9318;48.644;9.456;2023-04-16T11:36:12;8.90;99.90
18384;DHT22;9318;48.644;9.456;2023-04-16T11:38:39;8.90;99.90
18384;DHT22;9318;48.644;9.456;2023-04-16T11:41:07;8.90;99.90
18384;DHT22;9318;48.644;9.456;2023-04-16T11:43:35;8.90;99.90
18384;DHT22;9318;48.644;9.456;2023-04-16T11:46:03;8.90;99.90
18384;DHT22;9318;48.644;9.456;2023-04-16T11:48:50;8.90;99.90
18384;DHT22;9318;48.644;9.456;2023-04-16T11:51:17;8.90;99.90
18384;DHT22;9318;48.644;9.456;2023-04-16T11:56:13;8.90;99.90
18384;DHT22;9318;48.644;9.456;2023-04-16T11:58:43;8.90;99.90
18384;DHT22;9318;48.644;9.456;2023-04-16T12:01:10;9.00;99.90
18384;DHT22;9318;48.644;9.456;2023-04-16T12:03:38;9.00;99.90
18384;DHT22;9318;48.644;9.456;2023-04-16T12:06:08;9.10;99.90
18384;DHT22;9318;48.644;9.456;2023-04-16T12:08:35;9.10;99.90
18384;DHT22;9318;48.644;9.456;2023-04-16T12:11:01;9.20;99.90
18384;DHT22;9318;48.644;9.456;2023-04-16T12:13:28;9.10;99.90
18384;DHT22;9318;48.644;9.456;2023-04-16T12:15:57;9.20;99.90
18384;DHT22;9318;48.644;9.456;2023-04-16T12:18:25;9.20;99.90
18384;DHT22;9318;48.644;9.456;2023-04-16T12:20:52;9.20;99.90
18384;DHT22;9318;48.644;9.456;2023-04-16T12:23:23;9.30;99.90
18384;DHT22;9318;48.644;9.456;2023-04-16T12:25:49;9.30;99.90
18384;DHT22;9318;48.644;9.456;2023-04-16T12:28:26;9.40;99.90
18384;DHT22;9318;48.644;9.456;2023-04-16T12:30:53;9.30;99.90
18384;DHT22;9318;48.644;9.456;2023-04-16T12:33:21;9.30;99.90
18384;DHT22;9318;48.644;9.456;2023-04-16T12:35:48;9.20;99.90
18384;DHT22;9318;48.644;9.456;2023-04-16T12:38:15;9.20;99.90
18384;DHT22;9318;48.644;9.456;2023-04-16T12:40:42;9.20;99.90
18384;DHT22;9318;48.644;9.456;2023-04-16T12:43:09;9.10;99.90
18384;DHT22;9318;48.644;9.456;2023-04-16T12:45:36;9.10;99.90
18384;DHT22;9318;48.644;9.456;2023-04-16T12:48:03;9.20;99.90
18384;DHT22;9318;48.644;9.456;2023-04-16T12:50:32;9.20;99.90
18384;DHT22;9318;48.644;9.456;2023-04-16T12:52:59;9.30;99.90
18384;DHT22;9318;48.644;9.456;2023-04-16T12:55:25;9.30;99.90
18384;DHT22;9318;48.644;9.456;2023-04-16T12:57:53;9.20;99.90
18384;DHT22;9318;48.644;9.456;2023-04-16T13:00:20;9.30;99.90
18384;DHT22;9318;48.644;9.456;2023-04-16T13:02:47;9.30;99.90
18384;DHT22;9318;48.644;9.456;2023-04-16T13:05:13;9.20;99.90
18384;DHT22;9318;48.644;9.456;2023-04-16T13:07:44;9.20;99.90
18384;DHT22;9318;48.644;9.456;2023-04-16T13:10:12;9.20;99.90
18384;DHT22;9318;48.644;9.456;2023-04-16T13:12:38;9.20;99.90
18384;DHT22;9318;48.644;9.456;2023-04-16T13:15:06;9.10;99.90
18384;DHT22;9318;48.644;9.456;2023-04-16T13:17:33;9.20;99.90
18384;DHT22;9318;48.644;9.456;2023-04-16T13:20:00;9.20;99.90
18384;DHT22;9318;48.644;9.456;2023-04-16T13:22:27;9.20;99.90
18384;DHT22;9318;48.644;9.456;2023-04-16T13:24:55;9.20;99.90
18384;DHT22;9318;48.644;9.456;2023-04-16T13:27:22;9.20;99.90
18384;DHT22;9318;48.644;9.456;2023-04-16T13:29:49;9.20;99.90
18384;DHT22;9318;48.644;9.456;2023-04-16T13:32:15;9.20;99.90
18384;DHT22;9318;48.644;9.456;2023-04-16T13:34:43;9.20;99.90
18384;DHT22;9318;48.644;9.456;2023-04-16T13:37:10;9.20;99.90
18384;DHT22;9318;48.644;9.456;2023-04-16T13:39:36;9.20;99.90
18384;DHT22;9318;48.644;9.456;2023-04-16T13:42:05;9.20;99.90
18384;DHT22;9318;48.644;9.456;2023-04-16T13:44:31;9.20;99.90
18384;DHT22;9318;48.644;9.456;2023-04-16T13:46:58;9.20;99.90
18384;DHT22;9318;48.644;9.456;2023-04-16T13:49:25;9.30;99.90
18384;DHT22;9318;48.644;9.456;2023-04-16T13:51:52;9.30;99.90
18384;DHT22;9318;48.644;9.456;2023-04-16T13:54:18;9.30;99.90
18384;DHT22;9318;48.644;9.456;2023-04-16T13:56:45;9.30;99.90
18384;DHT22;9318;48.644;9.456;2023-04-16T13:59:13;9.30;99.90
18384;DHT22;9318;48.644;9.456;2023-04-16T14:01:41;9.30;99.90
18384;DHT22;9318;48.644;9.456;2023-04-16T14:04:08;9.30;99.90
18384;DHT22;9318;48.644;9.456;2023-04-16T14:06:34;9.30;99.90
18384;DHT22;9318;48.644;9.456;2023-04-16T14:09:01;9.30;99.90
18384;DHT22;9318;48.644;9.456;2023-04-16T14:11:28;9.30;99.90
18384;DHT22;9318;48.644;9.456;2023-04-16T14:13:55;9.30;99.90
18384;DHT22;9318;48.644;9.456;2023-04-16T14:16:25;9.30;99.90
18384;DHT22;9318;48.644;9.456;2023-04-16T14:18:52;9.20;99.90
18384;DHT22;9318;48.644;9.456;2023-04-16T14:21:19;9.20;99.90
18384;DHT22;9318;48.644;9.456;2023-04-16T14:23:45;9.20;99.90
18384;DHT22;9318;48.644;9.456;2023-04-16T14:26:12;9.20;99.90
18384;DHT22;9318;48.644;9.456;2023-04-16T14:28:40;9.20;99.90
18384;DHT22;9318;48.644;9.456;2023-04-16T14:31:06;9.20;99.90
18384;DHT22;9318;48.644;9.456;2023-04-16T14:33:34;9.20;99.90
18384;DHT22;9318;48.644;9.456;2023-04-16T14:36:01;9.20;99.90
18384;DHT22;9318;48.644;9.456;2023-04-16T14:38:28;9.20;99.90
18384;DHT22;9318;48.644;9.456;2023-04-16T14:40:55;9.30;99.90
18384;DHT22;9318;48.644;9.456;2023-04-16T14:43:22;9.30;99.90
18384;DHT22;9318;48.644;9.456;2023-04-16T14:45:49;9.30;99.90
18384;DHT22;9318;48.644;9.456;2023-04-16T14:48:15;9.30;99.90
18384;DHT22;9318;48.644;9.456;2023-04-16T14:50:43;9.30;99.90
18384;DHT22;9318;48.644;9.456;2023-04-16T14:53:11;9.30;99.90
18384;DHT22;9318;48.644;9.456;2023-04-16T14:55:37;9.30;99.90
18384;DHT22;9318;48.644;9.456;2023-04-16T14:58:04;9.30;99.90
18384;DHT22;9318;48.644;9.456;2023-04-16T15:00:32;9.40;99.90
18384;DHT22;9318;48.644;9.456;2023-04-16T15:02:59;9.40;99.90
18384;DHT22;9318;48.644;9.456;2023-04-16T15:05:26;9.40;99.90
18384;DHT22;9318;48.644;9.456;2023-04-16T15:07:54;9.40;99.90
18384;DHT22;9318;48.644;9.456;2023-04-16T15:10:21;9.40;99.90
18384;DHT22;9318;48.644;9.456;2023-04-16T15:12:48;9.40;99.90
18384;DHT22;9318;48.644;9.456;2023-04-16T15:15:15;9.50;99.90
18384;DHT22;9318;48.644;9.456;2023-04-16T15:17:42;9.50;99.90
18384;DHT22;9318;48.644;9.456;2023-04-16T15:20:10;9.40;99.90
18384;DHT22;9318;48.644;9.456;2023-04-16T15:22:37;9.40;99.90
18384;DHT22;9318;48.644;9.456;2023-04-16T15:25:06;9.40;99.90
18384;DHT22;9318;48.644;9.456;2023-04-16T15:27:32;9.40;99.90
18384;DHT22;9318;48.644;9.456;2023-04-16T15:29:59;9.40;99.90
18384;DHT22;9318;48.644;9.456;2023-04-16T15:32:26;9.40;99.90
18384;DHT22;9318;48.644;9.456;2023-04-16T15:34:53;9.40;99.90
18384;DHT22;9318;48.644;9.456;2023-04-16T15:37:19;9.40;99.90
18384;DHT22;9318;48.644;9.456;2023-04-16T15:39:46;9.40;99.90
18384;DHT22;9318;48.644;9.456;2023-04-16T15:42:15;9.40;99.90
18384;DHT22;9318;48.644;9.456;2023-04-16T15:44:42;9.40;99.90
18384;DHT22;9318;48.644;9.456;2023-04-16T15:47:08;9.40;99.90
18384;DHT22;9318;48.644;9.456;2023-04-16T15:49:35;9.40;99.90
18384;DHT22;9318;48.644;9.456;2023-04-16T15:52:02;9.40;99.90
18384;DHT22;9318;48.644;9.456;2023-04-16T15:54:29;9.40;99.90
18384;DHT22;9318;48.644;9.456;2023-04-16T15:56:56;9.40;99.90
18384;DHT22;9318;48.644;9.456;2023-04-16T15:59:25;9.40;99.90
18384;DHT22;9318;48.644;9.456;2023-04-16T16:01:52;9.40;99.90
18384;DHT22;9318;48.644;9.456;2023-04-16T16:04:19;9.30;99.90
18384;DHT22;9318;48.644;9.456;2023-04-16T16:06:47;9.30;99.90